createdAt,value
2022-12-24T00:02:11.171Z,113.20
2022-12-24T00:05:00.887Z,112.63
2022-12-24T00:07:47.507Z,107.50
2022-12-24T00:10:33.141Z,112.80
2022-12-24T00:13:19.118Z,108.03
2022-12-24T00:16:05.207Z,101.60
2022-12-24T00:18:50.927Z,86.40
2022-12-24T00:21:36.601Z,114.82
2022-12-24T00:24:22.805Z,112.90
2022-12-24T00:27:08.904Z,108.85
2022-12-24T00:29:54.623Z,106.63
2022-12-24T00:32:40.513Z,112.93
2022-12-24T00:35:26.101Z,132.85
2022-12-24T00:38:11.644Z,124.30
2022-12-24T00:41:02.046Z,144.93
2022-12-24T00:43:47.861Z,139.30
2022-12-24T00:46:34.591Z,129.52
2022-12-24T00:49:20.323Z,135.95
2022-12-24T00:52:05.961Z,144.85
2022-12-24T00:54:52.044Z,133.95
2022-12-24T00:57:38.007Z,146.45
2022-12-24T01:00:23.679Z,141.05
2022-12-24T01:03:10.042Z,131.48
2022-12-24T01:05:55.669Z,150.75
2022-12-24T01:08:41.683Z,136.23
2022-12-24T01:11:27.511Z,135.55
2022-12-24T01:14:13.182Z,137.95
2022-12-24T01:16:59.079Z,136.75
2022-12-24T01:19:44.763Z,139.57
2022-12-24T01:22:30.399Z,145.23
2022-12-24T01:25:16.101Z,131.55
2022-12-24T01:28:01.660Z,125.65
2022-12-24T01:30:48.286Z,133.38
2022-12-24T01:33:34.340Z,126.25
2022-12-24T01:36:20.035Z,137.18
2022-12-24T01:39:05.922Z,117.57
2022-12-24T01:42:10.803Z,117.75
2022-12-24T01:44:56.789Z,134.15
2022-12-24T01:47:42.401Z,120.63
2022-12-24T01:50:28.050Z,118.88
2022-12-24T01:53:14.873Z,104.47
2022-12-24T01:56:00.881Z,103.45
2022-12-24T01:58:48.798Z,107.72
2022-12-24T02:01:34.900Z,112.85
2022-12-24T02:04:36.494Z,112.65
2022-12-24T02:07:22.508Z,111.78
2022-12-24T02:10:11.627Z,112.18
2022-12-24T02:12:58.392Z,111.85
2022-12-24T02:16:00.230Z,106.85
2022-12-24T02:19:20.181Z,107.07
2022-12-24T02:22:27.874Z,110.00
2022-12-24T02:25:20.374Z,108.68
2022-12-24T02:28:09.073Z,103.55
2022-12-24T02:30:59.627Z,101.68
2022-12-24T02:33:59.637Z,98.13
2022-12-24T02:36:49.705Z,102.00
2022-12-24T02:39:57.790Z,99.45
2022-12-24T02:42:48.643Z,99.20
2022-12-24T02:45:35.633Z,87.72
2022-12-24T02:48:22.706Z,111.75
2022-12-24T02:51:09.939Z,94.68
2022-12-24T02:53:55.940Z,103.75
2022-12-24T02:56:56.837Z,98.90
2022-12-24T02:59:49.258Z,96.78
2022-12-24T03:02:38.271Z,91.60
2022-12-24T03:05:42.848Z,94.40
2022-12-24T03:09:23.409Z,96.60
2022-12-24T03:12:15.635Z,82.03
2022-12-24T03:15:01.513Z,86.32
2022-12-24T03:17:50.301Z,67.25
2022-12-24T03:20:40.979Z,58.28
2022-12-24T03:23:26.751Z,57.53
2022-12-24T03:26:14.851Z,46.65
2022-12-24T03:29:00.549Z,52.10
2022-12-24T03:31:54.930Z,78.10
2022-12-24T03:34:41.115Z,80.68
2022-12-24T03:37:27.408Z,85.15
2022-12-24T03:40:13.622Z,84.78
2022-12-24T03:42:59.444Z,89.47
2022-12-24T03:45:45.095Z,88.35
2022-12-24T03:48:32.970Z,83.90
2022-12-24T03:51:21.630Z,75.97
2022-12-24T03:54:07.497Z,80.38
2022-12-24T03:56:53.350Z,73.60
2022-12-24T03:59:38.969Z,79.45
2022-12-24T04:02:24.936Z,72.68
2022-12-24T04:05:16.344Z,71.75
2022-12-24T04:08:02.240Z,69.65
2022-12-24T04:10:47.868Z,74.82
2022-12-24T04:13:33.546Z,74.30
2022-12-24T04:16:19.315Z,74.47
2022-12-24T04:19:05.039Z,77.65
2022-12-24T04:21:51.175Z,79.40
2022-12-24T04:24:36.876Z,73.60
2022-12-24T04:27:30.178Z,72.47
2022-12-24T04:30:18.486Z,84.18
2022-12-24T04:33:04.378Z,84.22
2022-12-24T04:35:50.024Z,85.63
2022-12-24T04:38:35.755Z,72.95
2022-12-24T04:41:24.609Z,76.15
2022-12-24T04:44:10.813Z,80.47
2022-12-24T04:46:56.467Z,79.95
2022-12-24T04:49:42.099Z,81.38
2022-12-24T04:52:28.308Z,81.05
2022-12-24T04:55:14.181Z,80.18
2022-12-24T04:57:59.932Z,76.95
2022-12-24T05:00:45.525Z,77.53
2022-12-24T05:03:31.289Z,73.53
2022-12-24T05:06:20.041Z,75.13
2022-12-24T05:09:06.014Z,72.95
2022-12-24T05:11:51.800Z,64.13
2022-12-24T05:14:37.517Z,77.78
2022-12-24T05:17:23.288Z,67.60
2022-12-24T05:20:09.163Z,70.03
2022-12-24T05:23:13.524Z,70.28
2022-12-24T05:26:18.633Z,67.20
2022-12-24T05:29:05.567Z,74.57
2022-12-24T05:31:51.367Z,69.80
2022-12-24T05:34:37.002Z,68.90
2022-12-24T05:37:22.676Z,63.67
2022-12-24T05:40:08.877Z,52.97
2022-12-24T05:42:54.872Z,46.53
2022-12-24T05:45:40.453Z,46.40
2022-12-24T05:48:26.038Z,53.13
2022-12-24T05:51:13.107Z,66.35
2022-12-24T05:53:59.174Z,63.72
2022-12-24T05:56:44.906Z,68.63
2022-12-24T05:59:30.578Z,70.80
2022-12-24T06:02:16.200Z,71.95
2022-12-24T06:05:02.068Z,60.58
2022-12-24T06:07:48.192Z,70.63
2022-12-24T06:10:33.839Z,70.78
2022-12-24T06:13:19.470Z,73.95
2022-12-24T06:16:07.116Z,85.03
2022-12-24T06:18:53.236Z,78.10
2022-12-24T06:21:39.152Z,94.32
2022-12-24T06:24:24.924Z,145.20
2022-12-24T06:27:10.859Z,77.43
2022-12-24T06:29:56.966Z,73.00
2022-12-24T06:32:42.593Z,59.60
2022-12-24T06:35:28.246Z,55.38
2022-12-24T06:38:14.842Z,55.60
2022-12-24T06:41:00.559Z,52.25
2022-12-24T06:43:47.233Z,54.90
2022-12-24T06:46:32.835Z,56.53
2022-12-24T06:49:18.607Z,54.65
2022-12-24T06:52:04.527Z,53.53
2022-12-24T06:54:50.536Z,49.33
2022-12-24T06:57:36.425Z,50.85
2022-12-24T07:00:22.207Z,51.42
2022-12-24T07:03:07.857Z,57.78
2022-12-24T07:05:54.358Z,51.88
2022-12-24T07:08:40.526Z,60.22
2022-12-24T07:11:26.751Z,54.58
2022-12-24T07:14:12.666Z,54.28
2022-12-24T07:16:59.397Z,55.47
2022-12-24T07:19:45.659Z,53.10
2022-12-24T07:22:31.657Z,50.38
2022-12-24T07:25:17.562Z,51.58
2022-12-24T07:28:03.357Z,62.33
2022-12-24T07:30:49.025Z,56.65
2022-12-24T07:33:34.672Z,54.78
2022-12-24T07:36:22.049Z,64.35
2022-12-24T07:39:07.630Z,58.13
2022-12-24T07:41:53.717Z,57.75
2022-12-24T07:44:39.758Z,58.83
2022-12-24T07:47:25.451Z,56.25
2022-12-24T07:50:11.550Z,61.33
2022-12-24T07:52:57.611Z,65.85
2022-12-24T07:55:44.191Z,56.20
2022-12-24T07:58:30.037Z,65.53
2022-12-24T08:01:15.774Z,65.53
2022-12-24T08:04:01.575Z,70.40
2022-12-24T08:06:47.701Z,80.72
2022-12-24T08:09:38.396Z,94.70
2022-12-24T08:12:24.642Z,85.78
2022-12-24T08:15:10.727Z,92.85
2022-12-24T08:17:56.590Z,90.72
2022-12-24T08:20:42.389Z,84.80
2022-12-24T08:23:28.103Z,93.00
2022-12-24T08:26:13.939Z,97.72
2022-12-24T08:28:59.454Z,101.35
2022-12-24T08:31:45.276Z,86.75
2022-12-24T08:34:31.200Z,87.20
2022-12-24T08:37:16.992Z,103.78
2022-12-24T08:40:02.947Z,90.93
2022-12-24T08:42:48.909Z,106.00
2022-12-24T08:45:40.020Z,125.78
2022-12-24T08:48:26.706Z,243.73
2022-12-24T08:51:12.866Z,226.45
2022-12-24T08:53:58.498Z,94.63
2022-12-24T08:56:45.361Z,84.05
2022-12-24T08:59:30.990Z,75.10
2022-12-24T09:02:17.014Z,85.38
2022-12-24T09:05:02.887Z,89.25
2022-12-24T09:07:49.170Z,79.63
2022-12-24T09:10:35.175Z,324.20
2022-12-24T09:13:21.171Z,292.25
2022-12-24T09:16:07.910Z,328.23
2022-12-24T09:18:53.925Z,144.77
2022-12-24T09:21:39.617Z,124.90
2022-12-24T09:24:25.417Z,137.80
2022-12-24T09:27:11.163Z,133.55
2022-12-24T09:29:57.146Z,122.13
2022-12-24T09:32:43.377Z,121.22
2022-12-24T09:35:29.307Z,130.38
2022-12-24T09:38:16.002Z,111.25
2022-12-24T09:41:11.763Z,120.15
2022-12-24T09:44:16.616Z,107.80
2022-12-24T09:47:28.967Z,128.45
2022-12-24T09:50:33.929Z,129.88
2022-12-24T09:53:51.641Z,103.97
2022-12-24T09:56:41.556Z,98.35
2022-12-24T09:59:48.266Z,112.65
2022-12-24T10:02:37.242Z,86.90
2022-12-24T10:05:36.528Z,88.30
2022-12-24T10:08:45.167Z,55.00
2022-12-24T10:12:15.422Z,50.58
2022-12-24T10:15:25.455Z,49.55
2022-12-24T10:18:21.780Z,50.60
2022-12-24T10:21:15.151Z,47.83
2022-12-24T10:24:08.662Z,35.55
2022-12-24T10:27:16.876Z,74.07
2022-12-24T10:30:17.412Z,54.50
2022-12-24T10:33:18.813Z,46.58
2022-12-24T10:36:11.881Z,68.75
2022-12-24T10:39:00.165Z,218.07
2022-12-24T10:41:49.425Z,160.80
2022-12-24T10:44:36.137Z,57.72
2022-12-24T10:47:22.826Z,48.35
2022-12-24T10:50:17.782Z,57.63
2022-12-24T10:53:19.729Z,47.70
2022-12-24T10:56:14.262Z,53.63
2022-12-24T10:59:00.720Z,52.05
2022-12-24T11:01:48.366Z,46.08
2022-12-24T11:04:47.282Z,51.60
2022-12-24T11:07:33.389Z,53.17
2022-12-24T11:10:23.934Z,51.97
2022-12-24T11:13:39.792Z,56.30
2022-12-24T11:16:32.126Z,46.33
2022-12-24T11:19:24.441Z,42.72
2022-12-24T11:22:28.286Z,48.78
2022-12-24T11:28:28.978Z,52.23
2022-12-24T11:31:24.308Z,45.10
2022-12-24T11:34:33.068Z,50.30
2022-12-24T11:37:21.931Z,37.03
2022-12-24T11:40:21.337Z,43.15
2022-12-24T11:43:21.968Z,33.97
2022-12-24T11:46:32.156Z,37.55
2022-12-24T11:49:24.881Z,30.30
2022-12-24T11:52:10.459Z,40.13
2022-12-24T11:55:50.400Z,32.42
2022-12-24T11:58:56.601Z,34.22
2022-12-24T12:01:50.895Z,33.45
2022-12-24T12:04:37.343Z,35.95
2022-12-24T12:07:27.148Z,33.95
2022-12-24T12:10:19.848Z,29.23
2022-12-24T12:13:18.221Z,37.73
2022-12-24T12:17:00.751Z,42.20
2022-12-24T12:20:04.462Z,57.28
2022-12-24T12:23:14.816Z,46.67
2022-12-24T12:26:13.708Z,57.90
2022-12-24T12:29:01.957Z,51.78
2022-12-24T12:31:58.041Z,51.70
2022-12-24T12:35:15.330Z,36.17
2022-12-24T12:38:05.396Z,36.15
2022-12-24T12:41:12.326Z,42.90
2022-12-24T12:44:16.861Z,43.97
2022-12-24T12:47:05.592Z,28.60
2022-12-24T12:50:11.443Z,44.20
2022-12-24T12:53:03.264Z,53.50
2022-12-24T12:56:11.269Z,97.15
2022-12-24T12:59:04.827Z,82.70
2022-12-24T13:02:03.934Z,52.67
2022-12-24T13:05:19.553Z,59.63
2022-12-24T13:08:35.346Z,60.83
2022-12-24T13:11:27.381Z,53.45
2022-12-24T13:14:42.133Z,40.63
2022-12-24T13:17:43.278Z,56.65
2022-12-24T13:20:29.968Z,53.60
2022-12-24T13:23:24.150Z,41.85
2022-12-24T13:26:12.982Z,46.38
2022-12-24T13:29:36.343Z,37.40
2022-12-24T13:32:22.349Z,28.85
2022-12-24T13:35:36.954Z,29.25
2022-12-24T13:38:29.962Z,44.13
2022-12-24T13:41:41.075Z,34.58
2022-12-24T13:44:32.918Z,40.35
2022-12-24T13:47:25.266Z,29.20
2022-12-24T13:50:58.771Z,30.38
2022-12-24T13:53:47.067Z,29.73
2022-12-24T13:56:36.820Z,29.50
2022-12-24T13:59:22.793Z,32.13
2022-12-24T14:02:20.134Z,32.45
2022-12-24T14:05:21.261Z,37.47
2022-12-24T14:08:11.302Z,34.55
2022-12-24T14:11:23.045Z,37.10
2022-12-24T14:14:12.044Z,40.13
2022-12-24T14:17:00.638Z,32.72
2022-12-24T14:19:49.871Z,251.40
2022-12-24T14:22:42.146Z,317.83
2022-12-24T14:25:28.592Z,79.35
2022-12-24T14:28:19.296Z,40.25
2022-12-24T14:31:06.737Z,54.63
2022-12-24T14:33:52.803Z,34.85
2022-12-24T14:36:39.608Z,47.55
2022-12-24T14:39:34.740Z,45.42
2022-12-24T14:42:39.458Z,63.28
2022-12-24T14:45:34.178Z,30.55
2022-12-24T14:48:36.752Z,21.50
2022-12-24T14:51:36.851Z,29.42
2022-12-24T14:54:52.156Z,22.45
2022-12-24T14:57:38.093Z,21.10
2022-12-24T15:00:26.404Z,25.38
2022-12-24T15:03:17.610Z,20.38
2022-12-24T15:06:06.547Z,21.33
2022-12-24T15:08:52.631Z,21.25
2022-12-24T15:11:38.308Z,23.45
2022-12-24T15:14:25.701Z,25.48
2022-12-24T15:17:12.534Z,19.63
2022-12-24T15:19:59.310Z,15.82
2022-12-24T15:22:47.071Z,19.83
2022-12-24T15:25:33.330Z,21.05
2022-12-24T15:28:22.871Z,15.52
2022-12-24T15:31:12.648Z,16.23
2022-12-24T15:33:59.602Z,14.65
2022-12-24T15:36:45.487Z,14.60
2022-12-24T15:39:31.237Z,21.38
2022-12-24T15:42:19.141Z,29.30
2022-12-24T15:45:11.838Z,23.92
2022-12-24T15:48:23.588Z,29.73
2022-12-24T15:51:10.628Z,17.50
2022-12-24T15:54:03.475Z,20.23
2022-12-24T15:56:49.798Z,22.45
2022-12-24T15:59:36.285Z,20.15
2022-12-24T16:02:35.860Z,19.88
2022-12-24T16:05:35.986Z,19.08
2022-12-24T16:08:24.094Z,14.18
2022-12-24T16:11:32.239Z,17.63
2022-12-24T16:14:20.404Z,15.25
2022-12-24T16:17:18.847Z,20.13
2022-12-24T16:20:07.855Z,18.73
2022-12-24T16:22:54.196Z,20.88
2022-12-24T16:25:39.976Z,20.15
2022-12-24T16:28:26.523Z,18.75
2022-12-24T16:31:18.537Z,18.75
2022-12-24T16:34:05.005Z,16.98
2022-12-24T16:36:51.100Z,18.42
2022-12-24T16:39:36.982Z,17.73
2022-12-24T16:42:41.159Z,20.27
2022-12-24T16:45:29.105Z,18.80
2022-12-24T16:48:22.075Z,33.35
2022-12-24T16:51:08.062Z,25.67
2022-12-24T16:53:53.833Z,16.80
2022-12-24T16:56:44.079Z,16.70
2022-12-24T16:59:29.816Z,17.58
2022-12-24T17:02:19.499Z,18.75
2022-12-24T17:05:05.995Z,19.95
2022-12-24T17:07:51.785Z,17.73
2022-12-24T17:10:37.775Z,15.65
2022-12-24T17:13:23.921Z,16.45
2022-12-24T17:16:09.934Z,14.63
2022-12-24T17:18:56.469Z,17.90
2022-12-24T17:21:42.246Z,15.32
2022-12-24T17:24:28.159Z,16.00
2022-12-24T17:27:14.337Z,16.35
2022-12-24T17:30:00.387Z,16.70
2022-12-24T17:32:46.099Z,16.63
2022-12-24T17:35:31.760Z,20.58
2022-12-24T17:38:17.512Z,21.13
2022-12-24T17:41:10.444Z,21.63
2022-12-24T17:43:56.558Z,17.93
2022-12-24T17:46:43.162Z,17.67
2022-12-24T17:49:29.303Z,18.27
2022-12-24T17:52:15.335Z,20.30
2022-12-24T17:55:01.294Z,26.80
2022-12-24T17:57:46.923Z,28.80
2022-12-24T18:00:33.520Z,22.58
2022-12-24T18:03:19.434Z,21.38
2022-12-24T18:06:08.119Z,20.13
2022-12-24T18:08:54.251Z,18.45
2022-12-24T18:11:40.388Z,23.38
2022-12-24T18:14:26.667Z,23.60
2022-12-24T18:17:12.978Z,21.88
2022-12-24T18:20:00.030Z,16.63
2022-12-24T18:22:46.940Z,22.65
2022-12-24T18:25:33.220Z,17.17
2022-12-24T18:28:19.522Z,17.13
2022-12-24T18:31:08.718Z,27.42
2022-12-24T18:33:55.987Z,22.02
2022-12-24T18:36:42.354Z,20.95
2022-12-24T18:39:28.792Z,22.05
2022-12-24T18:42:15.181Z,33.72
2022-12-24T18:45:01.268Z,35.65
2022-12-24T18:47:47.271Z,28.00
2022-12-24T18:50:33.366Z,22.45
2022-12-24T18:53:19.020Z,21.52
2022-12-24T18:56:16.651Z,24.00
2022-12-24T18:59:04.126Z,28.05
2022-12-24T19:01:50.309Z,23.50
2022-12-24T19:04:36.218Z,22.95
2022-12-24T19:07:21.793Z,25.77
2022-12-24T19:10:08.967Z,23.58
2022-12-24T19:12:55.165Z,22.95
2022-12-24T19:15:42.179Z,29.67
2022-12-24T19:18:28.267Z,30.65
2022-12-24T19:21:15.614Z,28.30
2022-12-24T19:24:01.266Z,24.00
2022-12-24T19:26:48.766Z,23.63
2022-12-24T19:29:34.596Z,26.90
2022-12-24T19:32:20.536Z,22.95
2022-12-24T19:35:06.431Z,24.77
2022-12-24T19:37:52.351Z,22.80
2022-12-24T19:40:38.594Z,23.48
2022-12-24T19:43:24.189Z,25.17
2022-12-24T19:46:12.461Z,25.10
2022-12-24T19:49:00.622Z,20.15
2022-12-24T19:51:46.474Z,28.20
2022-12-24T19:54:32.348Z,21.13
2022-12-24T19:57:18.028Z,22.73
2022-12-24T20:00:06.866Z,17.92
2022-12-24T20:02:58.531Z,21.33
2022-12-24T20:05:44.693Z,19.88
2022-12-24T20:08:31.032Z,22.67
2022-12-24T20:11:20.197Z,23.30
2022-12-24T20:14:06.859Z,19.38
2022-12-24T20:16:52.572Z,24.33
2022-12-24T20:19:38.597Z,20.20
2022-12-24T20:22:24.325Z,30.40
2022-12-24T20:25:10.332Z,29.58
2022-12-24T20:27:56.780Z,27.17
2022-12-24T20:30:42.391Z,29.25
2022-12-24T20:33:28.198Z,22.95
2022-12-24T20:36:16.186Z,24.58
2022-12-24T20:39:02.120Z,22.15
2022-12-24T20:41:47.810Z,21.70
2022-12-24T20:44:35.208Z,22.13
2022-12-24T20:47:21.174Z,22.50
2022-12-24T20:50:07.458Z,25.90
2022-12-24T20:52:53.613Z,25.98
2022-12-24T20:55:39.388Z,25.88
2022-12-24T20:58:25.218Z,24.67
2022-12-24T21:01:19.907Z,20.17
2022-12-24T21:04:07.420Z,21.58
2022-12-24T21:06:54.145Z,21.83
2022-12-24T21:09:41.321Z,22.33
2022-12-24T21:12:45.622Z,22.40
2022-12-24T21:15:36.980Z,26.00
2022-12-24T21:18:22.551Z,26.73
2022-12-24T21:21:08.201Z,26.67
2022-12-24T21:23:55.754Z,27.38
2022-12-24T21:26:41.544Z,24.02
2022-12-24T21:29:27.508Z,25.20
2022-12-24T21:32:13.371Z,22.98
2022-12-24T21:34:58.953Z,21.98
2022-12-24T21:37:44.806Z,22.98
2022-12-24T21:40:30.532Z,21.30
2022-12-24T21:43:16.278Z,24.73
2022-12-24T21:46:06.776Z,23.55
2022-12-24T21:49:14.073Z,23.48
2022-12-24T21:52:00.497Z,22.20
2022-12-24T21:54:46.682Z,22.55
2022-12-24T21:57:52.536Z,26.33
2022-12-24T22:00:39.599Z,24.90
2022-12-24T22:03:25.258Z,29.88
2022-12-24T22:06:34.307Z,28.42
2022-12-24T22:09:38.682Z,30.17
2022-12-24T22:12:25.491Z,29.45
2022-12-24T22:15:11.574Z,138.57
2022-12-24T22:17:57.312Z,104.43
2022-12-24T22:20:44.739Z,46.78
2022-12-24T22:23:30.438Z,29.80
2022-12-24T22:26:17.786Z,24.10
2022-12-24T22:29:06.931Z,26.25
2022-12-24T22:31:52.551Z,25.55
2022-12-24T22:34:38.110Z,25.58
2022-12-24T22:37:23.786Z,32.75
2022-12-24T22:40:10.876Z,31.63
2022-12-24T22:42:58.144Z,28.25
2022-12-24T22:45:43.987Z,24.80
2022-12-24T22:48:29.718Z,25.23
2022-12-24T22:51:17.624Z,21.38
2022-12-24T22:54:04.044Z,21.92
2022-12-24T22:56:49.739Z,22.67
2022-12-24T22:59:35.427Z,23.00
2022-12-24T23:02:27.809Z,27.92
2022-12-24T23:05:15.541Z,45.35
2022-12-24T23:08:01.403Z,55.88
2022-12-24T23:10:47.218Z,64.60
2022-12-24T23:13:51.679Z,63.38
2022-12-24T23:16:37.827Z,76.53
2022-12-24T23:19:23.604Z,64.30
2022-12-24T23:22:10.676Z,56.67
2022-12-24T23:24:56.396Z,46.28
2022-12-24T23:27:42.000Z,39.72
2022-12-24T23:30:27.618Z,32.97
2022-12-24T23:33:13.308Z,31.40
2022-12-24T23:35:59.038Z,30.65
2022-12-24T23:38:44.805Z,19.05
2022-12-24T23:41:31.076Z,18.67
2022-12-24T23:44:17.062Z,16.48
2022-12-24T23:47:02.897Z,19.73
2022-12-24T23:49:48.774Z,29.70
2022-12-24T23:52:34.404Z,27.80
2022-12-24T23:55:20.210Z,33.70
2022-12-24T23:58:07.058Z,27.70
